Time;durP1;ratioP1;P1;durP2;ratioP2;P2;SDS_P1;SDS_P2;PMS_P1;PMS_P2;Temp;Humidity;BMP_temperature;BMP_pressure;BME280_temperature;BME280_humidity;BME280_pressure;Samples;Min_cycle;Max_cycle;Signal;HPM_P1;HPM_P2
2022/12/09 00:00:33;;;;;;;11.40;6.88;;;;;;;8.08;100.00;98245.69;5073944;28;20204;-60
2022/12/09 00:02:58;;;;;;;12.82;7.13;;;;;;;7.90;100.00;98214.16;5074670;28;20612;-60
2022/12/09 00:05:23;;;;;;;7.78;6.78;;;;;;;7.94;100.00;98222.53;5073759;28;20280;-60
2022/12/09 00:07:49;;;;;;;12.45;8.18;;;;;;;7.96;100.00;98221.50;5074597;28;20234;-60
2022/12/09 00:10:14;;;;;;;10.63;7.20;;;;;;;8.26;100.00;98273.78;5073637;28;20563;-59
2022/12/09 00:12:40;;;;;;;10.65;7.40;;;;;;;8.12;100.00;98249.75;5073678;28;20192;-60
2022/12/09 00:15:06;;;;;;;13.02;7.28;;;;;;;8.27;100.00;98290.88;5073606;28;20177;-60
2022/12/09 00:17:32;;;;;;;12.80;8.55;;;;;;;7.88;100.00;98225.47;5073923;28;20239;-60
2022/12/09 00:19:57;;;;;;;13.52;8.73;;;;;;;8.04;100.00;98227.00;5073526;28;20184;-60
2022/12/09 00:22:25;;;;;;;15.10;9.13;;;;;;;8.26;100.00;98263.47;5074088;28;20177;-60
2022/12/09 00:24:50;;;;;;;15.27;7.95;;;;;;;8.38;100.00;98270.44;5073641;28;20208;-60
2022/12/09 00:27:16;;;;;;;13.15;8.60;;;;;;;8.12;100.00;98226.53;5073419;28;20268;-60
2022/12/09 00:29:41;;;;;;;15.43;9.38;;;;;;;8.11;100.00;98219.75;5073068;28;20185;-60
2022/12/09 00:32:06;;;;;;;15.80;9.35;;;;;;;8.42;100.00;98264.19;5073315;28;20215;-59
2022/12/09 00:34:32;;;;;;;13.88;8.07;;;;;;;8.50;100.00;98272.25;5073744;28;20181;-60
2022/12/09 00:36:57;;;;;;;11.55;7.45;;;;;;;8.17;100.00;98216.78;5072879;28;20228;-60
2022/12/09 00:39:23;;;;;;;10.38;6.35;;;;;;;8.37;100.00;98262.78;5073126;28;20271;-59
2022/12/09 00:41:50;;;;;;;10.60;7.57;;;;;;;8.10;100.00;98228.41;5073069;28;20209;-59
2022/12/09 00:44:15;;;;;;;12.18;8.05;;;;;;;8.29;100.00;98273.59;5073503;28;20606;-60
2022/12/09 00:46:41;;;;;;;9.93;8.52;;;;;;;7.96;100.00;98233.56;5073597;28;20180;-60
2022/12/09 00:49:06;;;;;;;14.93;9.88;;;;;;;8.01;100.00;98240.09;5072693;28;20263;-59
2022/12/09 00:51:31;;;;;;;15.73;9.07;;;;;;;8.35;100.00;98293.00;5072610;28;20242;-59
2022/12/09 00:53:57;;;;;;;14.63;9.07;;;;;;;8.36;100.00;98277.44;5072889;28;20185;-59
2022/12/09 00:56:26;;;;;;;16.67;8.52;;;;;;;8.44;100.00;98287.28;5073411;28;20271;-60
2022/12/09 00:58:52;;;;;;;10.77;7.80;;;;;;;8.50;100.00;98292.88;5072881;28;20205;-59
2022/12/09 01:01:18;;;;;;;14.07;8.25;;;;;;;8.54;100.00;98283.19;5072502;28;20686;-59
2022/12/09 01:03:44;;;;;;;16.08;9.40;;;;;;;8.22;100.00;98241.38;5072737;28;20173;-60
2022/12/09 01:06:13;;;;;;;13.45;10.02;;;;;;;8.38;100.00;98272.19;5073429;28;20284;-60
2022/12/09 01:08:38;;;;;;;18.92;10.93;;;;;;;8.45;100.00;98294.09;5072706;28;20176;-60
2022/12/09 01:11:16;;;;;;;15.00;10.80;;;;;;;8.49;100.00;98290.38;5072818;28;20280;-59
2022/12/09 01:13:41;;;;;;;14.80;9.80;;;;;;;8.24;100.00;98224.06;5072685;28;20193;-59
2022/12/09 01:16:21;;;;;;;11.75;8.85;;;;;;;8.29;100.00;98226.38;5072522;28;20227;-59
2022/12/09 01:18:48;;;;;;;13.30;9.30;;;;;;;8.54;100.00;98247.09;5072513;28;20161;-59
2022/12/09 01:21:14;;;;;;;13.93;9.15;;;;;;;8.25;100.00;98219.72;5072478;28;20188;-60
2022/12/09 01:23:39;;;;;;;14.57;8.82;;;;;;;8.24;100.00;98221.50;5073085;28;20251;-59
2022/12/09 01:26:05;;;;;;;12.38;8.60;;;;;;;8.35;100.00;98244.03;5072379;28;20203;-60
2022/12/09 01:28:32;;;;;;;14.80;10.07;;;;;;;8.49;100.00;98288.66;5072463;28;20209;-59
2022/12/09 01:31:05;;;;;;;15.43;9.02;;;;;;;8.09;100.00;98237.06;5072113;28;20191;-60
2022/12/09 01:33:30;;;;;;;15.80;9.50;;;;;;;7.87;100.00;98260.69;5072387;28;20607;-60
2022/12/09 01:35:56;;;;;;;14.88;8.98;;;;;;;8.00;100.00;98271.09;5072600;28;20219;-59
2022/12/09 01:38:21;;;;;;;15.68;10.30;;;;;;;7.57;100.00;98236.78;5073196;28;20169;-59
2022/12/09 01:40:46;;;;;;;15.77;9.30;;;;;;;7.58;100.00;98220.41;5070119;28;20246;-60
2022/12/09 01:43:19;;;;;;;15.73;8.93;;;;;;;7.86;100.00;98265.97;5070202;28;20177;-59
2022/12/09 01:45:45;;;;;;;16.92;10.25;;;;;;;8.09;100.00;98271.38;5070286;28;20272;-60
2022/12/09 01:48:13;;;;;;;17.95;10.65;;;;;;;8.07;100.00;98275.78;5070381;28;20177;-59
2022/12/09 01:50:55;;;;;;;20.00;11.05;;;;;;;7.89;100.00;98264.03;5070585;28;20193;-60
2022/12/09 01:53:24;;;;;;;16.10;10.20;;;;;;;7.97;100.00;98269.53;5069842;28;20169;-60
2022/12/09 01:55:52;;;;;;;15.60;9.50;;;;;;;7.90;100.00;98244.22;5069895;28;20672;-59
2022/12/09 01:58:18;;;;;;;14.50;10.32;;;;;;;8.02;100.00;98253.78;5069758;28;20752;-59
2022/12/09 02:00:43;;;;;;;16.05;9.93;;;;;;;7.71;100.00;98208.47;5071721;28;20189;-59
2022/12/09 02:03:09;;;;;;;13.10;9.73;;;;;;;7.87;100.00;98259.88;5073863;28;20176;-59
2022/12/09 02:05:35;;;;;;;18.13;10.38;;;;;;;7.76;100.00;98247.63;5074000;28;20217;-60
2022/12/09 02:08:01;;;;;;;16.98;10.13;;;;;;;7.66;100.00;98248.28;5074249;28;20212;-59
2022/12/09 02:10:28;;;;;;;15.95;9.95;;;;;;;7.43;100.00;98202.47;5073893;28;20185;-59
2022/12/09 02:13:06;;;;;;;17.38;9.68;;;;;;;7.55;100.00;98223.16;5075863;28;20284;-59
2022/12/09 02:15:49;;;;;;;16.08;8.88;;;;;;;7.61;100.00;98240.84;5075947;28;20306;-59
2022/12/09 02:18:20;;;;;;;18.30;9.27;;;;;;;7.25;100.00;98177.81;5076464;28;20169;-59
2022/12/09 02:21:02;;;;;;;14.20;8.20;;;;;;;7.48;100.00;98234.75;5076463;28;20172;-59
2022/12/09 02:23:32;;;;;;;13.70;8.90;;;;;;;7.27;100.00;98171.66;5076410;28;20165;-59
2022/12/09 02:26:15;;;;;;;16.85;9.68;;;;;;;7.57;100.00;98249.66;5075394;28;20667;-60
2022/12/09 02:29:11;;;;;;;13.50;8.40;;;;;;;7.65;100.00;98259.50;5091134;28;20533;-59
2022/12/09 02:31:58;;;;;;;13.80;8.25;;;;;;;7.17;100.00;98165.41;5076188;28;20177;-60
2022/12/09 02:34:30;;;;;;;13.57;8.07;;;;;;;7.24;100.00;98186.47;5075624;28;20173;-59
2022/12/09 02:37:02;;;;;;;15.10;8.43;;;;;;;7.43;100.00;98247.06;5075570;28;20172;-59
2022/12/09 02:39:55;;;;;;;17.10;8.25;;;;;;;6.93;100.00;98191.75;5075599;28;20589;-59
2022/12/09 02:42:24;;;;;;;15.25;9.57;;;;;;;6.78;100.00;98180.59;5093808;28;20261;-59
2022/12/09 02:44:51;;;;;;;18.27;9.82;;;;;;;7.08;100.00;98230.25;5093558;28;20228;-59
2022/12/09 02:47:26;;;;;;;15.30;9.48;;;;;;;7.08;100.00;98227.69;5093478;28;20193;-59
2022/12/09 02:49:59;;;;;;;16.23;9.02;;;;;;;7.16;100.00;98228.06;5093651;28;20223;-60
2022/12/09 02:52:25;;;;;;;17.88;9.68;;;;;;;7.26;100.00;98238.66;5093746;28;20257;-60
2022/12/09 02:54:50;;;;;;;14.05;9.20;;;;;;;7.11;100.00;98200.97;5093127;28;20654;-59
2022/12/09 02:57:21;;;;;;;18.15;9.80;;;;;;;7.40;100.00;98236.94;5093218;28;20601;-59
2022/12/09 02:59:46;;;;;;;13.40;8.38;;;;;;;7.56;100.00;98258.28;5093089;28;20196;-59
2022/12/09 03:02:24;;;;;;;16.02;8.25;;;;;;;7.33;100.00;98212.47;5093006;28;20220;-59
2022/12/09 03:05:22;;;;;;;16.63;9.57;;;;;;;7.73;100.00;98258.13;5093497;28;20204;-59
2022/12/09 03:07:56;;;;;;;16.25;9.50;;;;;;;7.78;100.00;98261.25;4993427;28;20203;-59
2022/12/09 03:10:31;;;;;;;18.48;10.32;;;;;;;7.88;100.00;98262.38;4993095;28;20183;-59
2022/12/09 03:13:07;;;;;;;19.25;10.98;;;;;;;7.42;100.00;98165.63;4993266;28;20193;-59
2022/12/09 03:15:36;;;;;;;18.20;11.70;;;;;;;8.01;100.00;98260.72;4993900;28;20175;-59
2022/12/09 03:18:06;;;;;;;18.00;10.88;;;;;;;8.01;100.00;98262.44;4993240;28;20232;-60
2022/12/09 03:20:35;;;;;;;18.60;10.88;;;;;;;7.70;100.00;98206.78;4993822;28;20180;-59
2022/12/09 03:23:04;;;;;;;22.15;13.00;;;;;;;7.70;100.00;98217.09;4993206;28;20176;-60
2022/12/09 03:25:38;;;;;;;23.13;13.30;;;;;;;7.83;100.00;98223.19;4993152;28;20331;-59
2022/12/09 03:28:07;;;;;;;26.45;13.55;;;;;;;8.03;100.00;98245.16;4993077;28;20660;-59
2022/12/09 03:30:37;;;;;;;24.50;13.63;;;;;;;8.09;100.00;98250.75;4992930;28;20194;-59
2022/12/09 03:33:03;;;;;;;24.60;12.57;;;;;;;8.15;100.00;98259.88;4992914;28;20195;-60
2022/12/09 03:35:34;;;;;;;26.33;13.13;;;;;;;8.25;100.00;98277.28;4992892;28;20210;-59
2022/12/09 03:38:03;;;;;;;22.85;12.98;;;;;;;8.03;100.00;98225.34;4993028;28;20188;-59
2022/12/09 03:40:30;;;;;;;27.15;12.77;;;;;;;8.08;100.00;98238.78;4992782;28;20599;-59
2022/12/09 03:43:11;;;;;;;25.17;12.55;;;;;;;8.21;100.00;98267.25;4992756;28;20701;-59
2022/12/09 03:45:37;;;;;;;22.02;12.50;;;;;;;8.14;100.00;98274.50;5067052;28;20227;-59
2022/12/09 03:48:03;;;;;;;24.13;13.38;;;;;;;7.86;100.00;98263.38;5075094;28;20173;-59
2022/12/09 03:50:34;;;;;;;26.42;14.93;;;;;;;7.76;100.00;98278.53;5074775;28;20189;-60
2022/12/09 03:53:14;;;;;;;27.13;14.23;;;;;;;7.30;100.00;98227.28;5074220;28;20165;-59
2022/12/09 03:55:47;;;;;;;28.15;13.68;;;;;;;7.66;100.00;98305.75;5074141;28;20173;-59
2022/12/09 03:58:14;;;;;;;21.15;11.88;;;;;;;7.76;100.00;98288.81;5074035;28;20180;-60
2022/12/09 04:00:40;;;;;;;24.05;13.68;;;;;;;7.57;100.00;98243.69;5074042;28;20271;-59
2022/12/09 04:03:06;;;;;;;24.42;12.60;;;;;;;7.94;100.00;98308.38;5074284;28;20712;-60
2022/12/09 04:05:32;;;;;;;29.70;15.38;;;;;;;7.99;100.00;98296.00;5073834;28;20205;-60
2022/12/09 04:07:58;;;;;;;26.63;14.63;;;;;;;8.05;100.00;98290.50;5073867;28;20173;-60
2022/12/09 04:10:23;;;;;;;28.42;15.23;;;;;;;7.69;100.00;98230.88;5073661;28;20291;-60
2022/12/09 04:12:48;;;;;;;25.05;13.50;;;;;;;7.63;100.00;98280.19;5072135;28;20642;-60
2022/12/09 04:15:14;;;;;;;23.75;13.50;;;;;;;6.89;100.00;98180.81;5071550;28;20193;-60
2022/12/09 04:17:39;;;;;;;23.52;13.38;;;;;;;7.04;100.00;98215.91;5071319;28;20185;-60
2022/12/09 04:20:05;;;;;;;25.20;13.32;;;;;;;7.35;100.00;98272.41;5071293;28;20185;-60
2022/12/09 04:22:31;;;;;;;28.90;13.93;;;;;;;7.46;100.00;98284.66;5070817;28;20191;-60
2022/12/09 04:24:56;;;;;;;26.75;15.93;;;;;;;7.54;100.00;98290.19;5070856;28;20216;-60
2022/12/09 04:27:22;;;;;;;24.83;13.68;;;;;;;7.24;100.00;98223.31;5071184;28;20189;-60
2022/12/09 04:29:47;;;;;;;25.02;14.50;;;;;;;7.54;100.00;98262.72;5071031;28;20217;-60
2022/12/09 04:32:13;;;;;;;29.50;15.43;;;;;;;7.22;100.00;98198.59;5070994;28;20192;-60
2022/12/09 04:34:38;;;;;;;29.95;14.98;;;;;;;7.45;100.00;98242.66;5071039;28;20687;-60
2022/12/09 04:37:03;;;;;;;23.48;13.38;;;;;;;7.27;100.00;98254.00;5070910;28;20656;-60
2022/12/09 04:39:29;;;;;;;26.80;13.52;;;;;;;6.76;100.00;98220.97;5071367;28;20197;-60
2022/12/09 04:41:55;;;;;;;21.55;12.05;;;;;;;6.81;100.00;98197.59;5070812;28;20544;-60
2022/12/09 04:44:20;;;;;;;20.85;11.85;;;;;;;6.71;100.00;98189.53;5072672;28;20283;-60
2022/12/09 04:46:46;;;;;;;19.70;11.77;;;;;;;6.81;100.00;98187.31;5072784;28;20177;-60
2022/12/09 04:49:11;;;;;;;21.52;12.00;;;;;;;7.10;100.00;98230.19;5073368;28;20176;-60
2022/12/09 04:51:36;;;;;;;21.50;10.13;;;;;;;6.61;100.00;98165.28;5073009;28;20180;-60
2022/12/09 04:54:02;;;;;;;19.08;11.13;;;;;;;6.79;100.00;98213.09;5073522;28;20177;-60
2022/12/09 04:56:27;;;;;;;16.70;10.02;;;;;;;6.95;100.00;98249.91;5072570;28;20177;-60
2022/12/09 04:58:53;;;;;;;17.25;8.80;;;;;;;6.63;100.00;98211.44;5072640;28;20180;-60
2022/12/09 05:01:21;;;;;;;23.08;10.25;;;;;;;6.57;100.00;98260.63;5073325;28;20173;-60
2022/12/09 05:03:48;;;;;;;19.42;9.10;;;;;;;6.45;100.00;98218.44;5072974;28;20184;-60
2022/12/09 05:06:14;;;;;;;17.92;9.77;;;;;;;6.67;100.00;98272.91;5072931;28;20200;-60
2022/12/09 05:08:40;;;;;;;18.58;10.48;;;;;;;6.55;100.00;98255.59;5072444;28;20177;-60
2022/12/09 05:11:06;;;;;;;17.88;9.63;;;;;;;6.57;100.00;98253.75;5072910;28;20223;-60
2022/12/09 05:13:32;;;;;;;19.90;10.63;;;;;;;6.59;100.00;98223.66;5073200;28;20180;-60
2022/12/09 05:16:05;;;;;;;22.98;10.75;;;;;;;7.02;100.00;98273.50;5072614;28;20679;-60
2022/12/09 05:18:30;;;;;;;21.73;11.23;;;;;;;6.87;100.00;98243.53;5072280;28;20188;-60
2022/12/09 05:20:56;;;;;;;22.40;10.73;;;;;;;7.02;100.00;98271.78;5072627;28;20180;-60
2022/12/09 05:23:22;;;;;;;20.08;11.95;;;;;;;6.70;100.00;98241.06;5072204;28;20211;-60
2022/12/09 05:25:48;;;;;;;31.00;15.23;;;;;;;6.68;100.00;98233.44;5072446;28;20556;-60
2022/12/09 05:28:13;;;;;;;23.92;12.95;;;;;;;6.91;100.00;98275.84;5072483;28;20199;-60
2022/12/09 05:30:39;;;;;;;29.42;13.57;;;;;;;7.14;100.00;98298.53;5072460;28;20177;-60
2022/12/09 05:33:05;;;;;;;24.52;13.65;;;;;;;7.15;100.00;98290.75;5073050;28;20170;-60
2022/12/09 05:35:31;;;;;;;30.73;14.63;;;;;;;7.04;100.00;98240.81;5072249;28;20219;-60
2022/12/09 05:37:56;;;;;;;26.35;15.38;;;;;;;7.30;100.00;98287.31;5072406;28;20172;-60
2022/12/09 05:40:22;;;;;;;28.80;14.82;;;;;;;7.21;100.00;98274.09;5072273;28;20650;-60
2022/12/09 05:42:47;;;;;;;32.13;15.57;;;;;;;7.18;100.00;98262.25;5072314;28;20180;-60
2022/12/09 05:45:13;;;;;;;29.40;15.70;;;;;;;7.15;100.00;98259.03;5071984;28;20207;-60
2022/12/09 05:47:38;;;;;;;28.42;15.20;;;;;;;7.30;100.00;98264.13;5072617;28;20186;-60
2022/12/09 05:50:06;;;;;;;30.00;15.98;;;;;;;7.09;100.00;98223.34;5073044;28;20684;-60
2022/12/09 05:52:37;;;;;;;32.17;16.98;;;;;;;7.37;100.00;98255.16;5072511;28;20177;-60
2022/12/09 05:55:07;;;;;;;32.20;14.38;;;;;;;7.19;100.00;98215.03;5072276;28;20176;-60
2022/12/09 05:57:33;;;;;;;24.83;13.73;;;;;;;7.47;100.00;98265.72;5072262;28;20540;-60
2022/12/09 05:59:58;;;;;;;25.80;13.40;;;;;;;7.52;100.00;98279.97;5072443;28;20177;-60
2022/12/09 06:02:24;;;;;;;30.55;14.35;;;;;;;7.24;100.00;98223.31;5071879;28;20263;-60
2022/12/09 06:04:49;;;;;;;28.70;14.13;;;;;;;7.32;100.00;98239.13;5072275;28;20578;-59
2022/12/09 06:07:15;;;;;;;37.60;17.08;;;;;;;7.30;100.00;98251.28;5072132;28;20173;-59
2022/12/09 06:09:40;;;;;;;29.80;15.20;;;;;;;7.45;100.00;98288.97;5072050;28;20248;-59
2022/12/09 06:12:06;;;;;;;32.28;16.55;;;;;;;7.47;100.00;98304.34;5072288;28;20192;-59
2022/12/09 06:14:31;;;;;;;30.45;15.63;;;;;;;6.90;100.00;98203.03;5072017;28;20180;-59
2022/12/09 06:16:56;;;;;;;31.42;15.82;;;;;;;7.23;100.00;98255.09;5071939;28;20173;-59
2022/12/09 06:19:22;;;;;;;33.53;16.67;;;;;;;7.52;100.00;98313.44;5071957;28;20181;-59
2022/12/09 06:21:47;;;;;;;30.90;15.25;;;;;;;7.14;100.00;98254.78;5071839;28;20173;-59
2022/12/09 06:24:13;;;;;;;30.83;15.27;;;;;;;7.25;100.00;98312.47;5071815;28;20185;-59
2022/12/09 06:26:38;;;;;;;31.35;14.88;;;;;;;7.26;100.00;98308.97;5071883;28;20173;-59
2022/12/09 06:29:03;;;;;;;36.20;16.48;;;;;;;7.13;100.00;98290.00;5071787;28;20185;-59
2022/12/09 06:31:29;;;;;;;31.75;16.42;;;;;;;7.02;100.00;98282.06;5071806;28;20173;-59
2022/12/09 06:33:54;;;;;;;31.63;16.90;;;;;;;7.23;100.00;98298.03;5072619;28;20241;-59
2022/12/09 06:36:20;;;;;;;31.77;16.08;;;;;;;7.46;100.00;98338.72;5071469;28;20185;-59
2022/12/09 06:38:46;;;;;;;37.67;16.38;;;;;;;7.05;100.00;98279.31;5071745;28;20180;-59
2022/12/09 06:41:13;;;;;;;32.22;16.77;;;;;;;7.38;100.00;98321.13;5071773;28;20177;-59
2022/12/09 06:43:40;;;;;;;39.65;18.83;;;;;;;7.46;100.00;98325.84;5071713;28;20192;-59
2022/12/09 06:46:13;;;;;;;39.45;18.75;;;;;;;7.38;100.00;98318.56;5071942;28;20585;-60
2022/12/09 06:48:39;;;;;;;36.20;18.00;;;;;;;6.94;100.00;98235.34;5074955;28;20181;-59
2022/12/09 06:51:04;;;;;;;41.00;19.98;;;;;;;6.80;100.00;98240.47;5075306;28;20180;-59
2022/12/09 06:53:30;;;;;;;43.63;19.10;;;;;;;7.32;100.00;98313.75;5075300;28;20177;-59
2022/12/09 06:56:00;;;;;;;43.60;20.63;;;;;;;7.52;100.00;98333.22;5075499;28;20559;-59
2022/12/09 06:58:26;;;;;;;45.65;22.00;;;;;;;7.62;100.00;98336.91;5075774;28;20227;-59
2022/12/09 07:00:51;;;;;;;47.95;21.30;;;;;;;7.46;100.00;98282.09;5075484;28;20177;-59
2022/12/09 07:03:16;;;;;;;50.03;24.58;;;;;;;7.45;100.00;98277.88;5075684;28;20180;-59
2022/12/09 07:05:42;;;;;;;38.30;20.75;;;;;;;7.58;100.00;98279.63;5074739;28;20742;-59
2022/12/09 07:08:07;;;;;;;44.85;21.88;;;;;;;7.72;100.00;98282.22;5075012;28;20268;-60
2022/12/09 07:10:34;;;;;;;43.97;21.08;;;;;;;7.69;100.00;98286.72;5074866;28;20192;-59
2022/12/09 07:12:59;;;;;;;43.38;21.27;;;;;;;7.57;100.00;98272.81;5075820;28;20207;-59
2022/12/09 07:15:25;;;;;;;40.13;21.30;;;;;;;8.01;100.00;98330.25;5074882;28;20185;-59
2022/12/09 07:17:50;;;;;;;48.85;20.02;;;;;;;7.85;100.00;98285.72;5074918;28;20230;-59
2022/12/09 07:20:16;;;;;;;37.53;19.83;;;;;;;7.67;100.00;98240.47;5074778;28;20174;-59
2022/12/09 07:22:41;;;;;;;43.72;19.40;;;;;;;8.11;100.00;98335.69;5074493;28;20301;-60
2022/12/09 07:25:07;;;;;;;35.65;18.58;;;;;;;7.85;100.00;98293.44;5074632;28;20228;-59
2022/12/09 07:27:33;;;;;;;45.72;19.25;;;;;;;7.70;100.00;98289.19;5074602;28;20554;-59
2022/12/09 07:29:58;;;;;;;40.92;18.98;;;;;;;7.68;100.00;98309.06;5074540;28;20181;-60
2022/12/09 07:32:23;;;;;;;43.40;21.13;;;;;;;7.46;100.00;98282.91;5074485;28;20177;-59
2022/12/09 07:34:49;;;;;;;41.17;21.05;;;;;;;7.86;100.00;98340.66;5074425;28;20264;-60
2022/12/09 07:37:14;;;;;;;41.38;19.55;;;;;;;7.69;100.00;98315.06;5074431;28;20172;-59
2022/12/09 07:39:40;;;;;;;39.67;20.15;;;;;;;7.86;100.00;98330.34;5074414;28;20180;-60
2022/12/09 07:42:05;;;;;;;36.72;18.98;;;;;;;7.88;100.00;98328.50;5074311;28;20716;-59
2022/12/09 07:44:31;;;;;;;43.45;21.00;;;;;;;7.85;100.00;98314.06;5074603;28;20201;-60
2022/12/09 07:46:56;;;;;;;38.47;21.00;;;;;;;7.68;100.00;98285.88;5075082;28;20184;-60
2022/12/09 07:49:23;;;;;;;47.97;22.38;;;;;;;7.78;100.00;98328.22;5074206;28;20643;-60
2022/12/09 07:51:49;;;;;;;39.97;21.38;;;;;;;7.56;100.00;98293.50;5074714;28;20227;-60
2022/12/09 07:54:16;;;;;;;39.03;21.13;;;;;;;7.75;100.00;98325.81;5074092;28;20284;-60
2022/12/09 07:56:42;;;;;;;45.75;21.30;;;;;;;7.52;100.00;98290.28;5074070;28;20185;-60
2022/12/09 07:59:10;;;;;;;45.55;23.20;;;;;;;7.86;100.00;98343.22;5073066;28;20181;-60
2022/12/09 08:01:36;;;;;;;40.17;21.30;;;;;;;7.91;100.00;98336.88;5074041;28;20592;-60
2022/12/09 08:04:04;;;;;;;34.00;18.92;;;;;;;7.53;100.00;98249.91;5073940;28;20184;-60
2022/12/09 08:06:30;;;;;;;34.45;18.10;;;;;;;8.18;100.00;98337.81;5073787;28;20232;-60
2022/12/09 08:09:00;;;;;;;34.63;18.20;;;;;;;7.99;100.00;98306.31;5073865;28;20217;-60
2022/12/09 08:11:27;;;;;;;32.80;17.83;;;;;;;7.79;100.00;98255.19;5073909;28;20675;-60
2022/12/09 08:13:57;;;;;;;33.33;17.65;;;;;;;8.19;100.00;98313.69;5073768;28;20185;-60
2022/12/09 08:16:23;;;;;;;33.40;17.65;;;;;;;8.44;100.00;98344.81;5073714;28;20559;-60
2022/12/09 08:18:50;;;;;;;41.95;20.50;;;;;;;8.13;100.00;98275.41;5072344;28;20177;-59
2022/12/09 08:21:21;;;;;;;40.08;21.88;;;;;;;8.34;100.00;98323.09;5073182;28;20591;-60
2022/12/09 08:23:47;;;;;;;49.08;23.13;;;;;;;8.02;100.00;98279.53;5073886;28;20176;-60
2022/12/09 08:26:14;;;;;;;42.17;21.27;;;;;;;8.20;100.00;98304.22;5073489;28;20551;-60
2022/12/09 08:28:40;;;;;;;40.03;22.10;;;;;;;8.30;100.00;98329.38;5072381;28;20614;-60
2022/12/09 08:31:07;;;;;;;53.65;27.08;;;;;;;8.32;100.00;98331.88;5073405;28;20216;-60
2022/12/09 08:33:33;;;;;;;48.13;24.10;;;;;;;7.94;100.00;98295.50;5073618;28;20651;-60
2022/12/09 08:36:00;;;;;;;47.17;23.33;;;;;;;8.34;100.00;98342.91;5072963;28;20196;-60
2022/12/09 08:38:25;;;;;;;58.85;30.45;;;;;;;8.27;100.00;98319.25;5073268;28;20192;-60
2022/12/09 08:40:50;;;;;;;45.90;23.40;;;;;;;8.36;100.00;98343.63;5073223;28;20548;-60
2022/12/09 08:43:16;;;;;;;42.00;22.73;;;;;;;8.02;100.00;98269.25;5073216;28;20238;-60
2022/12/09 08:45:41;;;;;;;48.58;22.92;;;;;;;8.38;100.00;98324.56;5073631;28;20209;-60
2022/12/09 08:48:08;;;;;;;41.58;21.15;;;;;;;8.49;100.00;98322.16;5073369;28;20543;-60
2022/12/09 08:50:33;;;;;;;48.70;23.35;;;;;;;8.12;100.00;98260.03;5073575;28;20188;-60
2022/12/09 08:52:59;;;;;;;50.92;25.20;;;;;;;8.11;100.00;98269.50;5073026;28;20558;-60
2022/12/09 08:55:25;;;;;;;50.60;24.42;;;;;;;8.32;100.00;98309.47;5072957;28;20181;-60
2022/12/09 08:57:51;;;;;;;50.28;24.65;;;;;;;8.20;100.00;98312.81;5072937;28;20223;-60
2022/12/09 09:00:18;;;;;;;51.90;24.92;;;;;;;7.87;100.00;98280.47;5072917;28;20665;-59
2022/12/09 09:02:43;;;;;;;50.22;25.60;;;;;;;8.23;100.00;98316.94;5073145;28;20257;-59
2022/12/09 09:05:09;;;;;;;59.55;26.42;;;;;;;8.25;100.00;98315.94;5073285;28;20654;-59
2022/12/09 09:07:35;;;;;;;49.95;25.40;;;;;;;8.16;100.00;98313.88;5072777;28;20180;-60
2022/12/09 09:10:01;;;;;;;45.30;23.20;;;;;;;8.05;100.00;98308.53;5072595;28;20195;-60
2022/12/09 09:12:27;;;;;;;48.53;22.40;;;;;;;8.11;100.00;98315.88;5073966;28;20271;-59
2022/12/09 09:14:53;;;;;;;48.30;24.40;;;;;;;8.09;100.00;98310.00;5072660;28;20205;-59
2022/12/09 09:17:19;;;;;;;48.47;24.55;;;;;;;7.62;100.00;98219.31;5072650;28;20206;-59
2022/12/09 09:19:45;;;;;;;48.78;24.88;;;;;;;7.91;100.00;98251.03;5072582;28;20188;-59
2022/12/09 09:22:11;;;;;;;49.17;24.42;;;;;;;8.21;100.00;98301.56;5072574;28;20177;-59
2022/12/09 09:24:36;;;;;;;52.22;24.25;;;;;;;8.09;100.00;98281.66;5072993;28;20201;-59
2022/12/09 09:27:02;;;;;;;57.05;26.88;;;;;;;8.29;100.00;98289.06;5072513;28;20189;-59
2022/12/09 09:29:27;;;;;;;60.30;29.02;;;;;;;7.72;100.00;98189.53;5072829;28;20256;-59
2022/12/09 09:31:53;;;;;;;55.88;27.95;;;;;;;8.00;100.00;98229.88;5072418;28;20260;-60
2022/12/09 09:34:20;;;;;;;56.55;26.08;;;;;;;8.13;100.00;98235.94;5072376;28;20235;-60
2022/12/09 09:36:46;;;;;;;55.33;28.25;;;;;;;8.34;100.00;98258.66;5072366;28;20204;-59
2022/12/09 09:39:11;;;;;;;54.13;26.20;;;;;;;8.37;100.00;98250.75;5072686;28;20192;-59
2022/12/09 09:41:47;;;;;;;61.25;27.75;;;;;;;8.33;100.00;98258.78;5072347;28;20260;-59
2022/12/09 09:44:35;;;;;;;76.68;37.33;;;;;;;8.33;100.00;98262.16;5072351;28;20180;-59
2022/12/09 09:47:11;;;;;;;64.13;32.63;;;;;;;8.39;100.00;98261.78;5070340;28;20204;-59
2022/12/09 09:49:52;;;;;;;63.50;30.63;;;;;;;8.42;100.00;98268.50;5070187;28;20562;-59
2022/12/09 09:52:21;;;;;;;66.03;30.15;;;;;;;8.39;100.00;98241.16;5070434;28;20707;-59
2022/12/09 09:54:47;;;;;;;61.40;29.30;;;;;;;8.53;100.00;98254.03;5069868;28;20255;-60
2022/12/09 09:57:35;;;;;;;65.25;30.45;;;;;;;8.61;100.00;98246.63;5070640;28;20277;-59
2022/12/09 10:00:19;;;;;;;72.00;32.08;;;;;;;8.72;100.00;98253.66;5069870;28;20176;-59
2022/12/09 10:02:59;;;;;;;109.90;44.10;;;;;;;8.72;100.00;98245.94;5070019;28;20197;-59
2022/12/09 10:05:36;;;;;;;101.65;38.60;;;;;;;8.75;100.00;98243.97;5070298;28;20335;-60
2022/12/09 10:08:04;;;;;;;73.43;34.53;;;;;;;8.87;100.00;98248.38;5070295;28;20189;-59
2022/12/09 10:10:50;;;;;;;73.63;30.92;;;;;;;8.72;100.00;98226.13;5070084;28;20188;-59
2022/12/09 10:13:18;;;;;;;59.90;29.35;;;;;;;8.91;100.00;98249.81;5070538;28;20197;-59
2022/12/09 10:16:15;;;;;;;64.97;30.70;;;;;;;8.87;100.00;98235.50;5069650;28;20563;-60
2022/12/09 10:19:00;;;;;;;69.60;33.38;;;;;;;8.91;100.00;98226.59;5072042;28;20793;-60
2022/12/09 10:21:29;;;;;;;67.18;30.05;;;;;;;8.58;100.00;98187.53;5073158;28;20162;-59
2022/12/09 10:23:56;;;;;;;64.70;28.58;;;;;;;8.91;100.00;98233.53;5075844;28;20585;-59
2022/12/09 10:26:26;;;;;;;67.43;30.52;;;;;;;8.93;100.00;98218.78;5076139;28;20663;-59
2022/12/09 10:29:32;;;;;;;62.08;28.67;;;;;;;8.95;100.00;98225.50;5076050;28;20279;-59
2022/12/09 10:31:57;;;;;;;62.75;32.60;;;;;;;8.94;100.00;98210.94;5073278;28;20184;-60
2022/12/09 10:34:24;;;;;;;66.47;30.80;;;;;;;8.77;100.00;98193.16;5073530;28;20195;-59
2022/12/09 10:36:49;;;;;;;66.25;30.65;;;;;;;8.78;100.00;98205.13;5073373;28;20277;-60
2022/12/09 10:39:20;;;;;;;72.63;32.38;;;;;;;8.70;100.00;98206.53;5073232;28;20204;-60
2022/12/09 10:44:39;;;;;;;59.38;27.75;;;;;;;8.15;100.00;98082.06;5073424;28;20200;-59
2022/12/09 10:47:26;;;;;;;52.13;26.70;;;;;;;8.70;100.00;98163.53;5073199;28;20196;-59
2022/12/09 10:49:54;;;;;;;60.83;29.50;;;;;;;8.73;100.00;98134.94;5073066;28;20623;-59
2022/12/09 10:52:25;;;;;;;87.05;38.10;;;;;;;8.45;100.00;98098.97;5073173;28;20185;-59
2022/12/09 10:54:50;;;;;;;87.78;33.42;;;;;;;7.97;100.00;98057.44;5073425;28;20246;-59
2022/12/09 10:57:16;;;;;;;67.78;29.67;;;;;;;8.49;100.00;98152.00;5072989;28;20181;-59
2022/12/09 10:59:56;;;;;;;73.10;32.28;;;;;;;8.14;100.00;98088.13;5073187;28;20675;-59
2022/12/09 11:02:22;;;;;;;65.00;30.08;;;;;;;8.38;100.00;98135.59;5073563;28;20551;-59
2022/12/09 11:04:48;;;;;;;66.38;30.70;;;;;;;8.46;100.00;98131.56;5075006;28;20201;-59
2022/12/09 11:07:15;;;;;;;130.02;46.92;;;;;;;8.21;100.00;98087.66;5075089;28;20678;-61
2022/12/09 11:09:45;;;;;;;105.38;36.40;;;;;;;8.37;100.00;98098.66;5074983;28;20230;-60
2022/12/09 11:12:26;;;;;;;87.10;34.72;;;;;;;8.63;100.00;98138.22;5074688;28;20250;-60
2022/12/09 11:15:24;;;;;;;72.70;28.70;;;;;;;8.54;100.00;98144.81;5075766;28;20196;-61
2022/12/09 11:18:33;;;;;;;152.20;51.67;;;;;;;8.54;100.00;98144.81;5032772;28;20194;-60
2022/12/09 11:21:04;;;;;;;266.27;83.85;;;;;;;8.29;100.00;98088.03;4935259;29;20653;-60
2022/12/09 11:23:30;;;;;;;54.65;24.92;;;;;;;8.28;100.00;98096.66;4935454;29;20194;-60
2022/12/09 11:26:20;;;;;;;55.42;23.77;;;;;;;8.57;100.00;98136.84;4935311;29;20221;-61
2022/12/09 11:28:59;;;;;;;47.42;23.17;;;;;;;8.25;100.00;98091.72;4935236;29;20256;-60